Time;durP1;ratioP1;P1;durP2;ratioP2;P2;SDS_P1;SDS_P2;PMS_P1;PMS_P2;Temp;Humidity;BMP_temperature;BMP_pressure;BME280_temperature;BME280_humidity;BME280_pressure;Samples;Min_cycle;Max_cycle;Signal;HPM_P1;HPM_P2
2024/04/16 00:02:34;;;;;;;272.93;185.77;;;;;17.70;95591.00;;;;5421971;26;20234;-68
2024/04/16 00:05:25;;;;;;;275.27;184.50;;;;;17.70;95587.00;;;;5421745;26;20267;-68
2024/04/16 00:08:16;;;;;;;269.57;179.60;;;;;17.80;95581.00;;;;5409547;26;20281;-68
2024/04/16 00:11:07;;;;;;;268.80;179.97;;;;;17.90;95582.00;;;;5410872;26;20845;-68
2024/04/16 00:13:56;;;;;;;273.37;180.80;;;;;18.00;95578.00;;;;5427581;26;20226;-68
2024/04/16 00:16:47;;;;;;;280.83;183.30;;;;;17.80;95566.00;;;;5410417;26;20234;-68
2024/04/16 00:19:36;;;;;;;296.27;190.00;;;;;17.70;95570.00;;;;5409402;26;20653;-68
2024/04/16 00:22:27;;;;;;;295.33;179.60;;;;;17.70;95565.00;;;;5414726;26;20289;-68
2024/04/16 00:25:18;;;;;;;359.73;174.03;;;;;17.80;95587.00;;;;5424864;26;20305;-68
2024/04/16 00:28:08;;;;;;;332.70;189.77;;;;;17.90;95582.00;;;;5408955;26;20276;-68
2024/04/16 00:30:57;;;;;;;316.30;178.77;;;;;17.90;95575.00;;;;5428374;26;20361;-68
2024/04/16 00:33:48;;;;;;;368.20;190.33;;;;;17.90;95596.00;;;;5409328;26;20302;-68
2024/04/16 00:36:36;;;;;;;340.07;187.93;;;;;17.80;95576.00;;;;5420734;26;20225;-68
2024/04/16 00:39:27;;;;;;;326.10;189.20;;;;;17.80;95573.00;;;;5418369;26;20276;-68
2024/04/16 00:42:18;;;;;;;335.20;177.37;;;;;17.80;95578.00;;;;5419151;26;20237;-67
2024/04/16 00:45:11;;;;;;;373.87;194.17;;;;;17.60;95577.00;;;;5418529;26;20229;-68
2024/04/16 00:47:59;;;;;;;333.13;182.17;;;;;17.10;95581.00;;;;5411857;26;20623;-68
2024/04/16 00:50:50;;;;;;;333.67;180.80;;;;;17.40;95578.00;;;;5417663;26;20229;-68
2024/04/16 00:53:38;;;;;;;356.17;174.80;;;;;17.60;95590.00;;;;5412728;26;20705;-68
2024/04/16 00:56:30;;;;;;;386.10;196.33;;;;;17.40;95591.00;;;;5412556;26;20226;-68
2024/04/16 00:59:23;;;;;;;386.17;202.30;;;;;17.50;95581.00;;;;5407745;26;20570;-68
2024/04/16 01:02:11;;;;;;;380.77;181.53;;;;;17.50;95571.00;;;;5417112;26;20230;-68
2024/04/16 01:05:04;;;;;;;347.10;173.33;;;;;17.40;95570.00;;;;5423096;26;20892;-68
2024/04/16 01:07:53;;;;;;;373.40;187.80;;;;;17.30;95583.00;;;;5412011;26;20658;-68
2024/04/16 01:10:44;;;;;;;332.10;174.43;;;;;17.40;95564.00;;;;5411727;26;20237;-68
2024/04/16 01:13:32;;;;;;;290.83;187.40;;;;;17.40;95557.00;;;;5416119;26;20242;-68
2024/04/16 01:16:26;;;;;;;287.13;180.70;;;;;17.10;95574.00;;;;5409266;26;20738;-67
2024/04/16 01:19:14;;;;;;;266.57;174.53;;;;;17.10;95578.00;;;;5413834;26;20287;-68
2024/04/16 01:22:05;;;;;;;262.77;174.90;;;;;17.10;95587.00;;;;5410152;26;20301;-67
2024/04/16 01:24:56;;;;;;;243.47;167.83;;;;;17.10;95583.00;;;;5427967;26;20294;-68
2024/04/16 01:27:48;;;;;;;271.40;174.97;;;;;17.10;95579.00;;;;5416140;26;20252;-67
2024/04/16 01:30:37;;;;;;;267.53;169.23;;;;;17.10;95575.00;;;;5412251;26;20232;-67
2024/04/16 01:33:27;;;;;;;281.57;179.10;;;;;16.40;95592.00;;;;5414796;26;20582;-68
2024/04/16 01:36:16;;;;;;;261.23;169.00;;;;;16.80;95596.00;;;;5425697;26;20225;-67
2024/04/16 01:39:07;;;;;;;253.70;164.67;;;;;16.90;95576.00;;;;5412178;26;20284;-68
2024/04/16 01:41:58;;;;;;;264.80;167.87;;;;;16.90;95593.00;;;;5409759;26;20285;-67
2024/04/16 01:44:50;;;;;;;267.80;173.47;;;;;16.80;95589.00;;;;5409294;26;20233;-68
2024/04/16 01:47:38;;;;;;;279.53;173.07;;;;;16.70;95564.00;;;;5411572;26;20225;-68
2024/04/16 01:50:29;;;;;;;273.13;173.07;;;;;16.70;95558.00;;;;5413005;26;20296;-68
2024/04/16 01:53:18;;;;;;;280.03;166.93;;;;;16.40;95576.00;;;;5418156;26;20277;-68
2024/04/16 01:56:09;;;;;;;270.70;165.50;;;;;16.70;95565.00;;;;5423788;26;20234;-68
2024/04/16 01:59:02;;;;;;;286.43;164.80;;;;;16.70;95549.00;;;;5425477;26;20222;-68
2024/04/16 02:01:53;;;;;;;281.60;166.30;;;;;16.60;95553.00;;;;5410149;26;20249;-68
2024/04/16 02:04:41;;;;;;;272.20;168.50;;;;;16.40;95543.00;;;;5429138;26;20313;-68
2024/04/16 02:07:33;;;;;;;294.17;178.63;;;;;16.40;95543.00;;;;5414974;26;20734;-68
2024/04/16 02:10:21;;;;;;;290.73;168.37;;;;;16.20;95546.00;;;;5409441;26;20745;-68
2024/04/16 02:13:12;;;;;;;290.00;158.50;;;;;15.90;95544.00;;;;5412702;26;20293;-67
2024/04/16 02:16:03;;;;;;;326.80;162.87;;;;;15.80;95552.00;;;;5409178;26;20881;-68
2024/04/16 02:18:54;;;;;;;301.73;162.07;;;;;15.90;95535.00;;;;5423775;26;20234;-67
2024/04/16 02:21:42;;;;;;;296.20;159.67;;;;;15.90;95523.00;;;;5409366;26;20679;-68
2024/04/16 02:24:33;;;;;;;307.10;167.30;;;;;15.90;95548.00;;;;5417472;26;20275;-68
2024/04/16 02:27:21;;;;;;;304.57;157.70;;;;;15.70;95533.00;;;;5409320;26;20618;-68
2024/04/16 02:30:12;;;;;;;285.90;153.67;;;;;15.70;95538.00;;;;5412129;26;20263;-68
2024/04/16 02:33:03;;;;;;;284.97;157.13;;;;;15.70;95534.00;;;;5411881;26;20233;-68
2024/04/16 02:35:55;;;;;;;274.00;154.07;;;;;15.70;95505.00;;;;5413232;26;20226;-68
2024/04/16 02:38:43;;;;;;;260.30;150.23;;;;;15.10;95530.00;;;;5413609;26;20271;-68
2024/04/16 02:41:34;;;;;;;271.27;161.20;;;;;15.30;95529.00;;;;5407838;26;20293;-69
2024/04/16 02:44:22;;;;;;;270.63;155.30;;;;;15.50;95504.00;;;;5422377;26;20275;-71
2024/04/16 02:47:13;;;;;;;250.53;144.73;;;;;15.40;95527.00;;;;5422716;26;20264;-69
2024/04/16 02:50:05;;;;;;;262.13;154.67;;;;;15.30;95529.00;;;;5411324;26;20633;-69
2024/04/16 02:52:56;;;;;;;259.87;152.33;;;;;15.40;95525.00;;;;5430516;26;20276;-69
2024/04/16 02:55:44;;;;;;;259.27;151.73;;;;;15.40;95538.00;;;;5415012;26;20586;-69
2024/04/16 02:58:35;;;;;;;259.63;149.17;;;;;15.40;95524.00;;;;5410413;26;20764;-68
2024/04/16 03:01:26;;;;;;;260.10;147.83;;;;;15.00;95536.00;;;;5414599;26;20245;-69
2024/04/16 03:04:14;;;;;;;259.07;148.63;;;;;15.40;95526.00;;;;5422657;26;20288;-69
2024/04/16 03:07:08;;;;;;;257.43;145.23;;;;;15.40;95529.00;;;;5416644;26;20282;-69
2024/04/16 03:09:56;;;;;;;262.87;146.67;;;;;15.50;95525.00;;;;5425254;26;20285;-69
2024/04/16 03:12:47;;;;;;;267.17;150.07;;;;;15.20;95515.00;;;;5413739;26;20281;-69
2024/04/16 03:15:36;;;;;;;277.83;152.33;;;;;15.50;95518.00;;;;5418194;26;20275;-68
2024/04/16 03:18:26;;;;;;;283.00;153.60;;;;;15.40;95514.00;;;;5414001;26;20305;-68
2024/04/16 03:21:15;;;;;;;275.50;148.23;;;;;15.30;95513.00;;;;5417387;26;20230;-69
2024/04/16 03:24:09;;;;;;;275.27;149.87;;;;;15.20;95527.00;;;;5420286;26;20233;-69
2024/04/16 03:26:57;;;;;;;266.50;149.40;;;;;15.40;95538.00;;;;5426403;26;20230;-68
2024/04/16 03:29:48;;;;;;;268.60;147.77;;;;;15.30;95530.00;;;;5416777;26;20234;-68
2024/04/16 03:32:36;;;;;;;285.67;150.20;;;;;15.40;95509.00;;;;5417425;26;20285;-68
2024/04/16 03:35:27;;;;;;;283.67;151.60;;;;;15.30;95521.00;;;;5410625;26;20234;-68
2024/04/16 03:38:18;;;;;;;274.00;146.60;;;;;15.10;95523.00;;;;5420148;26;20290;-68
2024/04/16 03:41:11;;;;;;;284.73;146.87;;;;;14.90;95507.00;;;;5420946;26;20281;-68
2024/04/16 03:44:02;;;;;;;273.83;139.83;;;;;15.20;95487.00;;;;5415367;26;20289;-68
2024/04/16 03:46:50;;;;;;;287.37;147.63;;;;;14.90;95508.00;;;;5419837;26;20282;-68
2024/04/16 03:49:41;;;;;;;301.53;155.00;;;;;15.10;95510.00;;;;5417579;26;20606;-67
2024/04/16 03:52:30;;;;;;;297.23;151.67;;;;;14.90;95501.00;;;;5424502;26;20284;-68
2024/04/16 03:55:20;;;;;;;336.80;145.33;;;;;14.90;95498.00;;;;5417219;26;20293;-68
2024/04/16 03:58:11;;;;;;;272.73;144.50;;;;;14.80;95494.00;;;;5429891;26;20233;-68
2024/04/16 04:01:03;;;;;;;277.03;146.17;;;;;14.90;95507.00;;;;5408903;26;20268;-68
2024/04/16 04:03:51;;;;;;;280.20;146.07;;;;;14.40;95486.00;;;;5418971;26;20301;-69
2024/04/16 04:06:42;;;;;;;272.57;140.03;;;;;14.80;95486.00;;;;5425681;26;20272;-68
2024/04/16 04:09:31;;;;;;;288.00;150.27;;;;;14.70;95500.00;;;;5409333;26;20293;-68
2024/04/16 04:12:22;;;;;;;287.43;143.40;;;;;14.20;95506.00;;;;5480143;21;20267;-82
2024/04/16 04:15:13;;;;;;;302.87;139.53;;;;;13.80;95499.00;;;;5477347;26;20584;-81
2024/04/16 04:18:04;;;;;;;313.40;138.30;;;;;14.20;95496.00;;;;5476986;26;20271;-82
2024/04/16 04:20:52;;;;;;;323.03;131.93;;;;;14.40;95492.00;;;;5477441;26;20339;-83
2024/04/16 04:23:43;;;;;;;378.13;156.47;;;;;14.40;95500.00;;;;5485728;21;20608;-72
2024/04/16 04:26:31;;;;;;;360.27;156.47;;;;;14.00;95489.00;;;;5447545;26;20236;-72
2024/04/16 04:29:22;;;;;;;342.60;134.20;;;;;14.10;95495.00;;;;5444684;26;20224;-72
2024/04/16 04:32:15;;;;;;;366.27;154.60;;;;;14.10;95487.00;;;;5449844;26;20288;-72
2024/04/16 04:35:06;;;;;;;321.90;131.63;;;;;13.70;95487.00;;;;5472421;26;20233;-71
2024/04/16 04:37:55;;;;;;;328.97;133.17;;;;;13.90;95490.00;;;;5455297;26;20232;-71
2024/04/16 04:40:45;;;;;;;305.57;141.83;;;;;13.70;95509.00;;;;5459554;26;20291;-71
2024/04/16 04:43:34;;;;;;;303.57;138.77;;;;;13.10;95493.00;;;;5459803;26;20228;-71
2024/04/16 04:46:25;;;;;;;331.87;135.53;;;;;13.20;95494.00;;;;5450557;26;20231;-72
2024/04/16 04:49:15;;;;;;;321.40;132.37;;;;;13.20;95505.00;;;;5458274;26;20223;-71
2024/04/16 04:52:07;;;;;;;365.57;139.87;;;;;12.90;95521.00;;;;5463742;26;20229;-72
2024/04/16 04:54:55;;;;;;;361.10;129.07;;;;;13.10;95518.00;;;;5459613;26;20581;-72
2024/04/16 04:57:46;;;;;;;344.67;136.80;;;;;13.00;95529.00;;;;5454628;26;20225;-72
2024/04/16 05:00:34;;;;;;;372.60;151.43;;;;;12.90;95532.00;;;;5465102;26;20224;-72
2024/04/16 05:03:25;;;;;;;209.27;119.20;;;;;12.90;95544.00;;;;5454216;26;20646;-71
2024/04/16 05:06:16;;;;;;;195.80;116.27;;;;;13.00;95556.00;;;;5469424;26;20327;-72
2024/04/16 05:09:08;;;;;;;182.70;110.50;;;;;12.90;95544.00;;;;5463913;26;20221;-72
2024/04/16 05:12:22;;;;;;;186.53;110.40;;;;;12.60;95547.00;;;;5458025;26;20240;-72
2024/04/16 05:15:10;;;;;;;182.23;113.33;;;;;12.70;95559.00;;;;5450693;26;20660;-72
2024/04/16 05:18:02;;;;;;;170.67;105.53;;;;;12.40;95581.00;;;;5454678;26;20237;-72
2024/04/16 05:20:50;;;;;;;183.50;109.77;;;;;12.10;95560.00;;;;5450503;26;20262;-71
2024/04/16 05:23:44;;;;;;;190.90;115.83;;;;;12.40;95580.00;;;;5453658;26;20260;-72
2024/04/16 05:26:33;;;;;;;192.23;113.70;;;;;12.20;95567.00;;;;5472866;26;20625;-72
2024/04/16 05:29:24;;;;;;;184.27;109.97;;;;;12.30;95578.00;;;;5471209;26;20581;-71
2024/04/16 05:32:13;;;;;;;191.00;113.20;;;;;11.30;95574.00;;;;5455090;26;20239;-72
2024/04/16 05:35:05;;;;;;;187.70;107.73;;;;;11.90;95555.00;;;;5461616;26;20369;-72
2024/04/16 05:37:53;;;;;;;178.23;101.97;;;;;11.70;95554.00;;;;5462143;26;20236;-72
2024/04/16 05:40:47;;;;;;;188.83;110.17;;;;;11.50;95566.00;;;;5463137;26;20749;-71
2024/04/16 05:43:35;;;;;;;188.90;108.37;;;;;10.90;95551.00;;;;5460315;26;20282;-72
2024/04/16 05:46:26;;;;;;;188.63;115.77;;;;;10.90;95554.00;;;;5466154;26;20297;-72
2024/04/16 05:49:14;;;;;;;178.67;100.83;;;;;10.20;95563.00;;;;5453097;26;20291;-71
2024/04/16 05:52:06;;;;;;;193.03;106.37;;;;;9.90;95566.00;;;;5460908;26;20282;-72
2024/04/16 05:54:55;;;;;;;178.77;99.47;;;;;10.50;95563.00;;;;5460381;26;20248;-72
2024/04/16 05:57:48;;;;;;;186.13;100.67;;;;;10.50;95568.00;;;;5456041;26;20271;-73
2024/04/16 06:00:37;;;;;;;193.10;105.03;;;;;10.10;95564.00;;;;5451663;26;20288;-72
2024/04/16 06:03:28;;;;;;;212.77;106.87;;;;;9.80;95563.00;;;;5456891;26;20736;-72
2024/04/16 06:06:16;;;;;;;199.40;99.83;;;;;10.20;95555.00;;;;5460826;26;20287;-72
2024/04/16 06:09:07;;;;;;;202.70;97.87;;;;;10.40;95568.00;;;;5464056;26;20236;-72
2024/04/16 06:11:55;;;;;;;205.33;101.73;;;;;10.40;95573.00;;;;5449787;26;20289;-72
2024/04/16 06:14:49;;;;;;;197.30;98.00;;;;;10.40;95567.00;;;;5458436;26;20232;-71
2024/04/16 06:17:37;;;;;;;209.80;105.73;;;;;9.60;95573.00;;;;5445149;26;20228;-71
2024/04/16 06:20:28;;;;;;;202.00;102.67;;;;;9.00;95560.00;;;;5448397;26;20284;-71
2024/04/16 06:23:20;;;;;;;193.10;95.00;;;;;10.00;95584.00;;;;5453488;26;20290;-71
2024/04/16 06:26:11;;;;;;;191.87;95.07;;;;;9.80;95594.00;;;;5464493;26;22504;-72
2024/04/16 06:29:02;;;;;;;184.67;90.37;;;;;9.60;95602.00;;;;5471129;26;20237;-72
2024/04/16 06:31:53;;;;;;;191.63;93.17;;;;;9.70;95613.00;;;;5467624;26;20315;-72
2024/04/16 06:34:44;;;;;;;202.67;98.70;;;;;9.80;95606.00;;;;5471420;26;20538;-72
2024/04/16 06:37:32;;;;;;;211.73;102.30;;;;;9.90;95619.00;;;;5464577;26;20296;-71
2024/04/16 06:40:23;;;;;;;192.63;93.13;;;;;9.20;95616.00;;;;5458931;26;20225;-71
2024/04/16 06:43:11;;;;;;;195.17;97.00;;;;;9.40;95624.00;;;;5461727;26;20228;-71
2024/04/16 06:46:02;;;;;;;190.83;91.47;;;;;9.30;95641.00;;;;5463383;26;20764;-71
2024/04/16 06:48:54;;;;;;;187.23;91.10;;;;;8.60;95656.00;;;;5456000;26;20768;-70
2024/04/16 06:51:45;;;;;;;192.80;92.50;;;;;9.00;95639.00;;;;5453722;26;20721;-70
2024/04/16 06:54:33;;;;;;;195.27;94.07;;;;;9.40;95650.00;;;;5452302;26;20342;-70
2024/04/16 06:57:24;;;;;;;198.53;96.60;;;;;9.00;95627.00;;;;5452583;26;20620;-70
2024/04/16 07:00:13;;;;;;;190.93;91.10;;;;;7.80;95644.00;;;;5452072;26;20267;-68
2024/04/16 07:03:05;;;;;;;197.13;89.13;;;;;8.00;95637.00;;;;5452016;26;20232;-70
2024/04/16 07:05:55;;;;;;;201.07;87.53;;;;;8.90;95647.00;;;;5467220;26;20232;-70
2024/04/16 07:08:46;;;;;;;193.73;85.83;;;;;8.80;95653.00;;;;5464652;26;20277;-71
2024/04/16 07:11:35;;;;;;;210.40;95.73;;;;;9.00;95645.00;;;;5451996;26;20233;-71
2024/04/16 07:14:25;;;;;;;197.33;88.77;;;;;9.00;95640.00;;;;5465872;26;20308;-71
2024/04/16 07:17:14;;;;;;;199.30;88.63;;;;;9.10;95652.00;;;;5468870;26;20705;-71
2024/04/16 07:20:05;;;;;;;196.63;87.83;;;;;9.10;95671.00;;;;5452878;26;20300;-71
2024/04/16 07:22:58;;;;;;;199.30;90.07;;;;;8.80;95654.00;;;;5456235;26;20288;-70
2024/04/16 07:25:47;;;;;;;205.60;93.70;;;;;9.10;95657.00;;;;5426627;26;20276;-71
2024/04/16 07:28:38;;;;;;;213.37;97.43;;;;;9.10;95661.00;;;;5427916;26;20313;-71
2024/04/16 07:31:26;;;;;;;206.80;95.03;;;;;9.00;95684.00;;;;5426251;26;20238;-71
2024/04/16 07:34:18;;;;;;;195.27;87.67;;;;;9.10;95684.00;;;;5428228;26;20301;-71
2024/04/16 07:37:09;;;;;;;201.23;90.67;;;;;8.80;95654.00;;;;5430941;26;20381;-71
2024/04/16 07:40:00;;;;;;;202.40;91.73;;;;;9.10;95667.00;;;;5432793;26;20280;-71
2024/04/16 07:42:52;;;;;;;201.73;88.90;;;;;9.20;95673.00;;;;5425494;26;20311;-71
2024/04/16 07:45:41;;;;;;;203.37;90.67;;;;;9.00;95675.00;;;;5412754;26;20309;-71
2024/04/16 07:48:31;;;;;;;210.33;97.33;;;;;8.80;95676.00;;;;5410927;26;20285;-71
2024/04/16 07:51:20;;;;;;;181.90;85.90;;;;;8.60;95672.00;;;;5433222;26;20309;-71
2024/04/16 07:54:11;;;;;;;181.73;87.30;;;;;9.20;95660.00;;;;5417763;26;20293;-72
2024/04/16 07:57:02;;;;;;;181.80;85.97;;;;;9.00;95660.00;;;;5415757;26;20285;-71
2024/04/16 07:59:53;;;;;;;182.57;86.20;;;;;8.90;95669.00;;;;5409263;26;20301;-72
2024/04/16 08:02:41;;;;;;;181.40;85.93;;;;;9.10;95669.00;;;;5413350;26;20242;-72
2024/04/16 08:05:32;;;;;;;193.10;92.17;;;;;9.20;95694.00;;;;5427655;26;20676;-72
2024/04/16 08:08:20;;;;;;;171.63;86.33;;;;;9.00;95691.00;;;;5430632;26;20272;-71
2024/04/16 08:11:12;;;;;;;173.27;86.73;;;;;8.50;95691.00;;;;5428792;26;20284;-71
2024/04/16 08:14:03;;;;;;;167.67;82.57;;;;;8.90;95704.00;;;;5421094;26;20290;-71
2024/04/16 08:16:55;;;;;;;184.37;88.93;;;;;8.70;95691.00;;;;5407924;26;20578;-71
2024/04/16 08:19:43;;;;;;;168.57;83.20;;;;;9.00;95684.00;;;;5435220;26;20282;-70
2024/04/16 08:22:34;;;;;;;181.97;88.73;;;;;8.90;95693.00;;;;5427143;26;20587;-71
2024/04/16 08:25:22;;;;;;;178.40;86.17;;;;;9.00;95715.00;;;;5455523;26;20233;-71
2024/04/16 08:28:13;;;;;;;176.70;85.03;;;;;9.00;95716.00;;;;5447868;26;20655;-70
2024/04/16 08:31:04;;;;;;;177.53;86.07;;;;;8.60;95708.00;;;;5466554;26;20243;-71
2024/04/16 08:33:56;;;;;;;172.40;85.77;;;;;8.50;95687.00;;;;5464814;26;20240;-72
2024/04/16 08:36:47;;;;;;;176.80;87.17;;;;;8.70;95691.00;;;;5459640;26;20229;-71
2024/04/16 08:39:35;;;;;;;183.27;89.33;;;;;8.00;95702.00;;;;5447771;26;20237;-71
2024/04/16 08:42:27;;;;;;;175.60;86.90;;;;;8.40;95708.00;;;;5448880;26;20313;-71
2024/04/16 08:45:17;;;;;;;173.43;83.90;;;;;8.30;95723.00;;;;5449915;26;20305;-71
2024/04/16 08:48:11;;;;;;;181.93;88.40;;;;;9.00;95731.00;;;;5453369;26;20289;-71
2024/04/16 08:51:00;;;;;;;171.87;82.87;;;;;8.60;95705.00;;;;5459824;26;20304;-72
2024/04/16 08:53:52;;;;;;;174.70;83.73;;;;;9.20;95720.00;;;;5451456;26;20291;-71
2024/04/16 08:56:40;;;;;;;190.67;92.23;;;;;8.80;95728.00;;;;5445791;26;20885;-71
2024/04/16 08:59:31;;;;;;;185.00;89.27;;;;;9.00;95729.00;;;;5449793;26;20225;-72
2024/04/16 09:02:21;;;;;;;180.97;86.27;;;;;8.80;95724.00;;;;5454678;26;20293;-72
2024/04/16 09:05:15;;;;;;;185.03;86.30;;;;;9.00;95741.00;;;;5452716;26;20308;-72
2024/04/16 09:08:03;;;;;;;179.87;86.60;;;;;7.70;95740.00;;;;5454215;26;20292;-71
2024/04/16 09:10:54;;;;;;;184.40;87.63;;;;;8.60;95752.00;;;;5446033;26;20296;-71
2024/04/16 09:13:43;;;;;;;181.97;88.30;;;;;8.00;95732.00;;;;5443772;26;20248;-71
2024/04/16 09:16:34;;;;;;;194.30;91.17;;;;;8.70;95743.00;;;;5448823;26;20233;-71
2024/04/16 09:19:27;;;;;;;184.83;87.63;;;;;8.80;95740.00;;;;5445665;26;20337;-71
2024/04/16 09:22:18;;;;;;;187.03;88.43;;;;;9.10;95732.00;;;;5446594;26;20236;-71
2024/04/16 09:25:09;;;;;;;178.53;82.83;;;;;9.30;95744.00;;;;5457312;26;20621;-71
2024/04/16 09:27:58;;;;;;;194.27;89.17;;;;;9.40;95754.00;;;;5467891;26;20288;-71
2024/04/16 09:30:57;;;;;;;190.33;88.97;;;;;9.10;95758.00;;;;5454666;26;20236;-71
2024/04/16 09:33:45;;;;;;;182.80;86.37;;;;;9.50;95752.00;;;;5449386;26;20300;-71
2024/04/16 09:36:36;;;;;;;195.47;89.43;;;;;9.70;95759.00;;;;5449587;26;20279;-71
2024/04/16 09:39:27;;;;;;;197.03;93.83;;;;;9.90;95755.00;;;;5446260;26;20228;-71
2024/04/16 09:42:18;;;;;;;203.57;94.57;;;;;9.70;95762.00;;;;5449719;26;20240;-72
2024/04/16 09:45:08;;;;;;;203.27;91.97;;;;;9.90;95771.00;;;;5448004;26;20308;-72
2024/04/16 09:47:59;;;;;;;209.50;97.03;;;;;9.10;95774.00;;;;5454733;26;20247;-71
2024/04/16 09:50:48;;;;;;;207.07;93.47;;;;;9.10;95776.00;;;;5443272;26;20233;-72
2024/04/16 09:53:40;;;;;;;214.33;95.43;;;;;9.70;95777.00;;;;5444123;26;20776;-72
2024/04/16 09:56:33;;;;;;;220.90;98.37;;;;;9.60;95786.00;;;;5461663;26;20232;-71
2024/04/16 09:59:26;;;;;;;208.83;92.87;;;;;9.20;95775.00;;;;5446703;26;20279;-71
2024/04/16 10:02:15;;;;;;;208.03;91.70;;;;;9.70;95778.00;;;;5444668;26;20275;-71
2024/04/16 10:05:07;;;;;;;208.40;91.07;;;;;8.90;95774.00;;;;5470669;26;20310;-71
2024/04/16 10:07:55;;;;;;;215.03;93.40;;;;;9.20;95772.00;;;;5454814;26;20713;-71
2024/04/16 10:13:25;;;;;;;219.47;94.67;;;;;8.40;95747.00;;;;5469970;26;20713;-70
2024/04/16 10:16:15;;;;;;;217.20;92.67;;;;;9.10;95774.00;;;;5452525;26;20664;-69
2024/04/16 10:19:08;;;;;;;217.83;93.83;;;;;9.00;95778.00;;;;5472166;26;20300;-69
2024/04/16 10:22:01;;;;;;;226.80;96.53;;;;;8.60;95785.00;;;;5473640;26;20296;-70
2024/04/16 10:24:56;;;;;;;390.33;149.27;;;;;8.80;95776.00;;;;5462515;26;20306;-70
2024/04/16 10:27:49;;;;;;;337.33;107.73;;;;;9.30;95776.00;;;;5476378;26;20315;-70
2024/04/16 10:30:42;;;;;;;360.83;129.90;;;;;9.30;95799.00;;;;5477577;26;20232;-70
2024/04/16 10:33:34;;;;;;;319.20;107.83;;;;;9.10;95800.00;;;;5471517;26;20228;-69
2024/04/16 10:36:24;;;;;;;306.13;99.97;;;;;9.20;95820.00;;;;5470291;26;21028;-69
2024/04/16 10:39:16;;;;;;;341.17;98.87;;;;;9.40;95828.00;;;;5467499;26;20232;-69
2024/04/16 10:42:05;;;;;;;344.53;107.60;;;;;9.50;95816.00;;;;5466490;26;20227;-69
2024/04/16 10:44:55;;;;;;;306.53;99.40;;;;;9.40;95824.00;;;;5477365;26;20286;-70
2024/04/16 10:47:47;;;;;;;297.83;101.70;;;;;9.40;95827.00;;;;5472133;26;20231;-69
2024/04/16 10:50:41;;;;;;;298.77;102.17;;;;;9.00;95823.00;;;;5468439;26;20285;-70
2024/04/16 10:53:29;;;;;;;300.40;102.60;;;;;8.90;95811.00;;;;5475259;26;20227;-70
2024/04/16 10:56:21;;;;;;;296.63;95.73;;;;;9.20;95804.00;;;;5460488;26;20297;-70
2024/04/16 10:59:10;;;;;;;293.50;93.27;;;;;9.20;95806.00;;;;5465650;26;20278;-70
2024/04/16 11:02:00;;;;;;;320.90;102.30;;;;;8.90;95804.00;;;;5463702;26;20281;-70
2024/04/16 11:04:51;;;;;;;410.17;163.15;;;;;8.60;95811.00;;;;5443706;26;20446;-69
2024/04/16 11:07:42;;;;;;;363.73;116.00;;;;;9.20;95811.00;;;;5450222;26;20250;-69
2024/04/16 11:10:31;;;;;;;347.43;105.97;;;;;9.50;95795.00;;;;5451896;26;20303;-69
2024/04/16 11:13:22;;;;;;;329.03;97.77;;;;;9.50;95817.00;;;;5494918;26;20246;-70
2024/04/16 11:16:10;;;;;;;324.23;97.20;;;;;9.40;95828.00;;;;5498748;26;20239;-70
2024/04/16 11:19:02;;;;;;;319.70;97.20;;;;;9.40;95834.00;;;;5505633;26;20235;-70
2024/04/16 11:21:53;;;;;;;324.20;100.77;;;;;9.40;95850.00;;;;5507340;26;20260;-70
2024/04/16 11:24:44;;;;;;;338.47;109.63;;;;;9.00;95837.00;;;;5512088;25;20291;-69
2024/04/16 11:27:32;;;;;;;324.73;100.27;;;;;9.40;95824.00;;;;5514008;26;20298;-69
2024/04/16 11:30:23;;;;;;;326.53;96.93;;;;;9.40;95857.00;;;;5513632;26;20269;-68
2024/04/16 11:33:11;;;;;;;323.90;94.40;;;;;9.60;95850.00;;;;5514408;26;20235;-69
2024/04/16 11:36:07;;;;;;;320.57;95.77;;;;;9.40;95842.00;;;;5514669;26;20234;-70
2024/04/16 11:39:00;;;;;;;326.37;95.67;;;;;9.50;95842.00;;;;5512379;26;20227;-69
2024/04/16 11:41:50;;;;;;;325.80;99.23;;;;;8.90;95835.00;;;;5513279;26;20231;-69
2024/04/16 11:44:41;;;;;;;337.10;109.40;;;;;8.40;95829.00;;;;5506366;26;20276;-69
2024/04/16 11:47:30;;;;;;;390.83;147.05;;;;;8.00;95838.00;;;;5510667;26;20344;-69
2024/04/16 11:50:21;;;;;;;351.60;107.40;;;;;8.20;95832.00;;;;5504808;26;20226;-70
2024/04/16 11:53:10;;;;;;;334.73;101.43;;;;;8.60;95846.00;;;;5513634;26;20277;-69
2024/04/16 11:56:04;;;;;;;349.13;103.87;;;;;9.00;95836.00;;;;5511449;26;20306;-69
2024/04/16 11:58:55;;;;;;;343.37;92.47;;;;;9.00;95851.00;;;;5512603;26;20511;-69
2024/04/16 12:01:46;;;;;;;367.80;126.50;;;;;9.30;95857.00;;;;5507842;26;20459;-69
2024/04/16 12:04:34;;;;;;;338.10;105.20;;;;;9.40;95847.00;;;;5509301;26;20227;-68
2024/04/16 12:07:25;;;;;;;387.48;146.88;;;;;9.00;95859.00;;;;5511362;26;20312;-69
2024/04/16 12:10:15;;;;;;;396.30;171.93;;;;;8.80;95866.00;;;;5508951;26;20312;-69
2024/04/16 12:13:09;;;;;;;381.30;154.67;;;;;9.20;95871.00;;;;5490784;25;20277;-69
2024/04/16 12:15:57;;;;;;;362.00;121.07;;;;;9.40;95890.00;;;;5496726;26;20247;-69
2024/04/16 12:18:48;;;;;;;358.40;108.90;;;;;9.50;95881.00;;;;5490781;26;20666;-69
2024/04/16 12:21:37;;;;;;;361.73;106.43;;;;;9.50;95865.00;;;;5495125;26;20311;-69
2024/04/16 12:24:28;;;;;;;348.23;124.13;;;;;9.10;95864.00;;;;5495889;26;20227;-69
2024/04/16 12:27:20;;;;;;;399.38;168.57;;;;;8.40;95860.00;;;;5494901;26;20379;-68
2024/04/16 12:30:12;;;;;;;395.33;175.88;;;;;8.40;95858.00;;;;5497803;26;20350;-69
2024/04/16 12:33:02;;;;;;;357.30;109.97;;;;;8.90;95863.00;;;;5510827;26;20906;-69
2024/04/16 12:35:52;;;;;;;357.23;108.90;;;;;8.90;95861.00;;;;5506709;25;20882;-69
2024/04/16 12:38:44;;;;;;;349.30;105.20;;;;;8.80;95872.00;;;;5512672;26;20285;-68
2024/04/16 12:41:32;;;;;;;329.80;107.53;;;;;9.40;95853.00;;;;5512782;25;20242;-69
2024/04/16 12:44:23;;;;;;;307.30;95.47;;;;;9.60;95856.00;;;;5510920;26;20231;-69
2024/04/16 12:47:14;;;;;;;302.77;97.57;;;;;9.20;95852.00;;;;5510080;26;20306;-69
2024/04/16 12:50:05;;;;;;;395.88;157.20;;;;;8.20;95847.00;;;;5507104;26;20316;-69
2024/04/16 12:52:53;;;;;;;329.90;113.20;;;;;6.80;95835.00;;;;5515532;26;20372;-65
2024/04/16 12:55:44;;;;;;;312.67;106.03;;;;;7.30;95849.00;;;;5510249;26;20231;-69
2024/04/16 12:58:33;;;;;;;307.47;106.53;;;;;6.90;95850.00;;;;5511316;26;20290;-70
2024/04/16 13:01:23;;;;;;;282.47;94.20;;;;;6.60;95867.00;;;;5502594;26;20303;-70
2024/04/16 13:04:14;;;;;;;287.10;93.43;;;;;6.10;95856.00;;;;5508189;26;20532;-64
2024/04/16 13:07:06;;;;;;;297.67;95.00;;;;;6.20;95870.00;;;;5512349;26;20544;-69
2024/04/16 13:09:54;;;;;;;287.13;92.63;;;;;6.60;95864.00;;;;5510244;26;20576;-69
2024/04/16 13:12:45;;;;;;;299.03;102.90;;;;;6.40;95860.00;;;;5505895;26;20459;-69
2024/04/16 13:15:36;;;;;;;298.90;101.23;;;;;6.40;95859.00;;;;5506760;26;20447;-71
2024/04/16 13:18:24;;;;;;;288.73;91.83;;;;;6.30;95856.00;;;;5505382;26;20451;-66
2024/04/16 13:21:18;;;;;;;287.63;86.53;;;;;5.90;95859.00;;;;5508364;26;20902;-64
2024/04/16 13:24:06;;;;;;;286.20;83.27;;;;;6.60;95866.00;;;;5507908;26;22718;-69
2024/04/16 13:26:57;;;;;;;296.17;87.90;;;;;6.40;95885.00;;;;5507262;26;21442;-68
2024/04/16 13:29:45;;;;;;;323.53;94.97;;;;;6.30;95892.00;;;;5504640;26;20600;-68
2024/04/16 13:32:37;;;;;;;318.87;92.90;;;;;6.60;95884.00;;;;5506518;26;20506;-68
2024/04/16 13:35:25;;;;;;;314.77;83.10;;;;;6.90;95881.00;;;;5507148;26;20463;-68
2024/04/16 13:38:19;;;;;;;328.67;82.30;;;;;6.40;95868.00;;;;5509445;26;20530;-66
2024/04/16 13:41:08;;;;;;;351.63;122.73;;;;;6.00;95878.00;;;;5509644;26;20463;-71
2024/04/16 13:43:59;;;;;;;313.77;99.27;;;;;5.80;95860.00;;;;5505985;26;20455;-67